Time,TemperatureF,DewpointF,PressureIn,WindDirection,WindDirectionDegrees,WindSpeedMPH,WindSpeedGustMPH,Humidity,HourlyPrecipIn,Conditions,Clouds,dailyrainin,SolarRadiationWatts/m^2,SoftwareType,DateUTC
2014-02-27 00:02:00,47.0,47.0,-100.00,SSW,199,12.0,29.0,100,0.35,,,0.67,0.000000,,2014-02-27 08:02:00,
2014-02-27 00:11:00,47.0,47.0,-100.00,SSW,199,12.0,29.0,100,0.35,,,0.67,0.000000,,2014-02-27 08:11:00,
2014-02-27 00:21:00,46.0,46.0,-100.00,ESE,113,9.0,20.0,100,0.03,,,0.70,0.000000,,2014-02-27 08:21:00,
2014-02-27 00:52:00,46.0,46.0,-100.00,ESE,113,9.0,20.0,100,0.03,,,0.70,0.000000,,2014-02-27 08:52:00,
2014-02-27 01:02:00,46.0,46.0,-100.00,ESE,113,9.0,20.0,100,0.03,,,0.70,0.000000,,2014-02-27 09:02:00,
2014-02-27 01:11:00,46.0,46.0,-100.00,ESE,113,9.0,20.0,100,0.03,,,0.70,0.000000,,2014-02-27 09:11:00,
2014-02-27 01:21:00,47.0,47.0,-100.00,ESE,111,10.0,15.0,100,0.00,,,0.70,0.000000,,2014-02-27 09:21:00,
2014-02-27 01:53:00,47.0,47.0,-100.00,ESE,111,10.0,15.0,100,0.00,,,0.70,0.000000,,2014-02-27 09:53:00,
2014-02-27 02:03:00,47.0,47.0,-100.00,ESE,111,10.0,15.0,100,0.00,,,0.70,0.000000,,2014-02-27 10:03:00,
2014-02-27 02:12:00,47.0,47.0,-100.00,ESE,111,10.0,15.0,100,0.00,,,0.70,0.000000,,2014-02-27 10:12:00,
2014-02-27 02:21:00,45.0,45.0,-100.00,SE,132,9.0,21.0,100,0.00,,,0.70,0.000000,,2014-02-27 10:21:00,
2014-02-27 02:52:00,45.0,45.0,-100.00,SE,132,9.0,21.0,100,0.00,,,0.70,0.000000,,2014-02-27 10:52:00,
2014-02-27 03:02:00,45.0,45.0,-100.00,SE,132,9.0,21.0,100,0.00,,,0.70,0.000000,,2014-02-27 11:02:00,
2014-02-27 03:12:00,45.0,45.0,-100.00,SE,132,9.0,21.0,100,0.00,,,0.70,0.000000,,2014-02-27 11:12:00,
2014-02-27 03:21:00,46.0,44.0,-100.00,WNW,283,9.0,20.0,93,0.00,,,0.70,0.000000,,2014-02-27 11:21:00,
2014-02-27 03:52:00,46.0,44.0,-100.00,WNW,283,9.0,20.0,93,0.00,,,0.70,0.000000,,2014-02-27 11:52:00,
2014-02-27 04:02:00,46.0,44.0,-100.00,WNW,283,9.0,20.0,93,0.00,,,0.70,0.000000,,2014-02-27 12:02:00,
2014-02-27 04:12:00,46.0,44.0,-100.00,WNW,283,9.0,20.0,93,0.00,,,0.70,0.000000,,2014-02-27 12:12:00,
2014-02-27 04:21:00,48.0,45.0,-100.00,SE,129,9.0,19.0,89,0.00,,,0.70,0.000000,,2014-02-27 12:21:00,
2014-02-27 04:52:00,48.0,45.0,-100.00,SE,129,9.0,19.0,89,0.00,,,0.70,0.000000,,2014-02-27 12:52:00,
2014-02-27 05:01:00,48.0,45.0,-100.00,SE,129,9.0,19.0,89,0.00,,,0.70,0.000000,,2014-02-27 13:01:00,
2014-02-27 05:12:00,48.0,45.0,-100.00,SE,129,9.0,19.0,89,0.00,,,0.70,0.000000,,2014-02-27 13:12:00,
2014-02-27 05:21:00,48.0,45.0,-100.00,SE,126,8.0,17.0,89,0.00,,,0.70,0.000000,,2014-02-27 13:21:00,
2014-02-27 05:52:00,48.0,45.0,-100.00,SE,126,8.0,17.0,89,0.00,,,0.70,0.000000,,2014-02-27 13:52:00,
2014-02-27 06:02:00,48.0,45.0,-100.00,SE,126,8.0,17.0,89,0.00,,,0.70,0.000000,,2014-02-27 14:02:00,
2014-02-27 06:12:00,48.0,45.0,-100.00,SE,126,8.0,17.0,89,0.00,,,0.70,0.000000,,2014-02-27 14:12:00,
2014-02-27 06:21:00,47.0,46.0,-100.00,SE,134,7.0,17.0,97,0.04,,,0.74,0.000000,,2014-02-27 14:21:00,
2014-02-27 06:53:00,47.0,46.0,-100.00,SE,134,7.0,17.0,97,0.04,,,0.74,0.000000,,2014-02-27 14:53:00,
2014-02-27 07:02:00,47.0,46.0,-100.00,SE,134,7.0,17.0,97,0.04,,,0.74,0.000000,,2014-02-27 15:02:00,
2014-02-27 07:11:00,47.0,46.0,-100.00,SE,134,7.0,17.0,97,0.04,,,0.74,0.000000,,2014-02-27 15:11:00,
2014-02-27 07:21:00,45.0,45.0,-100.00,SE,124,10.0,22.0,99,0.02,,,0.74,0.000000,,2014-02-27 15:21:00,
2014-02-27 07:54:00,45.0,45.0,-100.00,SE,124,10.0,22.0,99,0.02,,,0.74,0.000000,,2014-02-27 15:54:00,
2014-02-27 08:03:00,45.0,45.0,-100.00,SE,124,10.0,22.0,99,0.02,,,0.74,0.000000,,2014-02-27 16:03:00,
2014-02-27 08:13:00,45.0,45.0,-100.00,SE,124,10.0,22.0,99,0.02,,,0.74,0.000000,,2014-02-27 16:13:00,
2014-02-27 08:21:00,46.0,44.0,-100.00,SE,129,9.0,21.0,94,0.00,,,0.74,9.000000,,2014-02-27 16:21:00,
2014-02-27 08:53:00,46.0,44.0,-100.00,SE,129,9.0,21.0,94,0.00,,,0.74,9.000000,,2014-02-27 16:53:00,
2014-02-27 09:02:00,46.0,44.0,-100.00,SE,129,9.0,21.0,94,0.00,,,0.74,9.000000,,2014-02-27 17:02:00,
2014-02-27 09:12:00,46.0,44.0,-100.00,SE,129,9.0,21.0,94,0.00,,,0.74,9.000000,,2014-02-27 17:12:00,
2014-02-27 09:21:00,48.0,46.0,-100.00,SE,131,9.0,19.0,93,0.00,,,0.74,58.000000,,2014-02-27 17:21:00,
2014-02-27 09:52:00,48.0,46.0,-100.00,SE,131,9.0,19.0,93,0.00,,,0.74,58.000000,,2014-02-27 17:52:00,
2014-02-27 10:02:00,48.0,46.0,-100.00,SE,131,9.0,19.0,93,0.00,,,0.74,58.000000,,2014-02-27 18:02:00,
2014-02-27 10:12:00,48.0,46.0,-100.00,SE,131,9.0,19.0,93,0.00,,,0.74,58.000000,,2014-02-27 18:12:00,
2014-02-27 10:21:00,49.0,48.0,-100.00,SE,145,6.0,20.0,95,0.02,,,0.76,119.000000,,2014-02-27 18:21:00,
2014-02-27 10:52:00,49.0,48.0,-100.00,SE,145,6.0,20.0,95,0.02,,,0.76,119.000000,,2014-02-27 18:52:00,
2014-02-27 11:01:00,49.0,48.0,-100.00,SE,145,6.0,20.0,95,0.02,,,0.76,119.000000,,2014-02-27 19:01:00,
2014-02-27 11:11:00,49.0,48.0,-100.00,SE,145,6.0,20.0,95,0.02,,,0.76,119.000000,,2014-02-27 19:11:00,
2014-02-27 11:21:00,49.0,48.0,-100.00,SE,141,6.0,16.0,96,0.02,,,0.78,200.000000,,2014-02-27 19:21:00,
2014-02-27 11:52:00,49.0,48.0,-100.00,SE,141,6.0,16.0,96,0.02,,,0.78,200.000000,,2014-02-27 19:52:00,
2014-02-27 12:01:00,49.0,48.0,-100.00,SE,141,6.0,16.0,96,0.02,,,0.78,200.000000,,2014-02-27 20:01:00,
2014-02-27 12:11:00,49.0,48.0,-100.00,SE,141,6.0,16.0,96,0.02,,,0.78,200.000000,,2014-02-27 20:11:00,
2014-02-27 12:21:00,49.0,48.0,-100.00,SE,128,9.0,18.0,96,0.02,,,0.80,192.000000,,2014-02-27 20:21:00,
2014-02-27 12:52:00,49.0,48.0,-100.00,SE,128,9.0,18.0,96,0.02,,,0.80,192.000000,,2014-02-27 20:52:00,
2014-02-27 13:02:00,49.0,48.0,-100.00,SE,128,9.0,18.0,96,0.02,,,0.80,192.000000,,2014-02-27 21:02:00,
2014-02-27 13:12:00,49.0,48.0,-100.00,SE,128,9.0,18.0,96,0.02,,,0.80,192.000000,,2014-02-27 21:12:00,
2014-02-27 13:21:00,50.0,49.0,-100.00,SSE,161,6.0,18.0,98,0.01,,,0.81,242.000000,,2014-02-27 21:21:00,
2014-02-27 13:53:00,50.0,49.0,-100.00,SSE,161,6.0,18.0,98,0.01,,,0.81,242.000000,,2014-02-27 21:53:00,
2014-02-27 14:03:00,50.0,49.0,-100.00,SSE,161,6.0,18.0,98,0.01,,,0.81,242.000000,,2014-02-27 22:03:00,
2014-02-27 14:13:00,50.0,49.0,-100.00,SSE,161,6.0,18.0,98,0.01,,,0.81,242.000000,,2014-02-27 22:13:00,
2014-02-27 14:21:00,49.0,49.0,-100.00,SSW,196,12.0,25.0,100,0.03,,,0.84,122.000000,,2014-02-27 22:21:00,
2014-02-27 14:53:00,49.0,49.0,-100.00,SSW,196,12.0,25.0,100,0.03,,,0.84,122.000000,,2014-02-27 22:53:00,
2014-02-27 15:02:00,49.0,49.0,-100.00,SSW,196,12.0,25.0,100,0.03,,,0.84,122.000000,,2014-02-27 23:02:00,
2014-02-27 15:12:00,49.0,49.0,-100.00,SSW,196,12.0,25.0,100,0.03,,,0.84,122.000000,,2014-02-27 23:12:00,
2014-02-27 15:21:00,49.0,49.0,-100.00,South,172,10.0,26.0,100,0.01,,,0.85,69.000000,,2014-02-27 23:21:00,
2014-02-27 15:53:00,49.0,49.0,-100.00,South,172,10.0,26.0,100,0.01,,,0.85,69.000000,,2014-02-27 23:53:00,
2014-02-27 16:02:00,49.0,49.0,-100.00,South,172,10.0,26.0,100,0.01,,,0.85,69.000000,,2014-02-28 00:02:00,
2014-02-27 16:12:00,49.0,49.0,-100.00,South,172,10.0,26.0,100,0.01,,,0.85,69.000000,,2014-02-28 00:12:00,
2014-02-27 16:21:00,47.0,47.0,-100.00,South,179,11.0,31.0,100,0.03,,,0.83,76.000000,,2014-02-28 00:21:00,
2014-02-27 16:52:00,47.0,47.0,-100.00,South,179,11.0,31.0,100,0.03,,,0.83,76.000000,,2014-02-28 00:52:00,
2014-02-27 17:02:00,47.0,47.0,-100.00,South,179,11.0,31.0,100,0.03,,,0.83,76.000000,,2014-02-28 01:02:00,
2014-02-27 17:11:00,47.0,47.0,-100.00,South,179,11.0,31.0,100,0.03,,,0.83,76.000000,,2014-02-28 01:11:00,
2014-02-27 17:21:00,46.0,46.0,-100.00,South,178,10.0,23.0,100,0.04,,,0.76,55.000000,,2014-02-28 01:21:00,
2014-02-27 17:52:00,46.0,46.0,-100.00,South,178,10.0,23.0,100,0.04,,,0.76,55.000000,,2014-02-28 01:52:00,
2014-02-27 18:02:00,46.0,46.0,-100.00,South,178,10.0,23.0,100,0.04,,,0.76,55.000000,,2014-02-28 02:02:00,
2014-02-27 18:11:00,46.0,46.0,-100.00,South,178,10.0,23.0,100,0.04,,,0.76,55.000000,,2014-02-28 02:11:00,
2014-02-27 18:21:00,48.0,48.0,-100.00,South,189,9.0,25.0,100,0.04,,,0.80,21.000000,,2014-02-28 02:21:00,
2014-02-27 18:52:00,48.0,48.0,-100.00,South,189,9.0,25.0,100,0.04,,,0.80,21.000000,,2014-02-28 02:52:00,
2014-02-27 19:02:00,48.0,48.0,-100.00,South,189,9.0,25.0,100,0.04,,,0.80,21.000000,,2014-02-28 03:02:00,
2014-02-27 19:11:00,48.0,48.0,-100.00,South,189,9.0,25.0,100,0.04,,,0.80,21.000000,,2014-02-28 03:11:00,
2014-02-27 19:21:00,46.0,46.0,-100.00,SE,129,9.0,18.0,100,0.00,,,0.78,0.000000,,2014-02-28 03:21:00,
2014-02-27 19:53:00,46.0,46.0,-100.00,SE,129,9.0,18.0,100,0.00,,,0.78,0.000000,,2014-02-28 03:53:00,
2014-02-27 20:03:00,46.0,46.0,-100.00,SE,129,9.0,18.0,100,0.00,,,0.78,0.000000,,2014-02-28 04:03:00,
2014-02-27 20:13:00,46.0,46.0,-100.00,SE,129,9.0,18.0,100,0.00,,,0.78,0.000000,,2014-02-28 04:13:00,
2014-02-27 20:21:00,47.0,47.0,-100.00,ESE,103,11.0,16.0,100,0.00,,,0.78,0.000000,,2014-02-28 04:21:00,
2014-02-27 20:53:00,47.0,47.0,-100.00,ESE,103,11.0,16.0,100,0.00,,,0.78,0.000000,,2014-02-28 04:53:00,
2014-02-27 21:02:00,47.0,47.0,-100.00,ESE,103,11.0,16.0,100,0.00,,,0.78,0.000000,,2014-02-28 05:02:00,
2014-02-27 21:12:00,47.0,47.0,-100.00,ESE,103,11.0,16.0,100,0.00,,,0.78,0.000000,,2014-02-28 05:12:00,
2014-02-27 21:21:00,45.0,45.0,-100.00,East,91,12.0,18.0,100,0.00,,,0.76,0.000000,,2014-02-28 05:21:00,
2014-02-27 21:53:00,45.0,45.0,-100.00,East,91,12.0,18.0,100,0.00,,,0.76,0.000000,,2014-02-28 05:53:00,
2014-02-27 22:03:00,45.0,45.0,-100.00,East,91,12.0,18.0,100,0.00,,,0.76,0.000000,,2014-02-28 06:03:00,
2014-02-27 22:12:00,45.0,45.0,-100.00,East,91,12.0,18.0,100,0.00,,,0.76,0.000000,,2014-02-28 06:12:00,
2014-02-27 22:21:00,47.0,47.0,-100.00,East,80,12.0,16.0,100,0.00,,,0.66,0.000000,,2014-02-28 06:21:00,
2014-02-27 22:52:00,47.0,47.0,-100.00,East,80,12.0,16.0,100,0.00,,,0.66,0.000000,,2014-02-28 06:52:00,
2014-02-27 23:02:00,47.0,47.0,-100.00,East,80,12.0,16.0,100,0.00,,,0.66,0.000000,,2014-02-28 07:02:00,
2014-02-27 23:11:00,47.0,47.0,-100.00,East,80,12.0,16.0,100,0.00,,,0.66,0.000000,,2014-02-28 07:11:00,
2014-02-27 23:21:00,46.0,44.0,-100.00,ENE,68,14.0,18.0,94,0.00,,,0.31,0.000000,,2014-02-28 07:21:00,
2014-02-27 23:52:00,46.0,44.0,-100.00,ENE,68,14.0,18.0,94,0.00,,,0.31,0.000000,,2014-02-28 07:52:00,